createdAt,value
2022-10-31T06:03:39.218Z,5
2022-10-31T06:04:28.391Z,5
2022-10-31T06:05:27.507Z,10
2022-10-31T06:06:26.697Z,10
2022-10-31T06:07:27.016Z,10
2022-10-31T06:08:26.727Z,10
2022-10-31T06:09:26.401Z,10
2022-10-31T06:10:26.643Z,10
2022-10-31T06:11:26.931Z,10
2022-10-31T06:12:26.399Z,15
2022-10-31T06:13:27.552Z,15
2022-10-31T06:14:26.909Z,15
2022-10-31T06:15:32.877Z,15
2022-10-31T06:16:27.183Z,15
2022-10-31T06:17:27.186Z,20
2022-10-31T06:18:26.471Z,20
2022-10-31T06:19:26.863Z,20
2022-10-31T06:20:27.743Z,20
2022-10-31T06:21:28.779Z,20
2022-10-31T06:22:26.963Z,20
2022-10-31T06:23:26.794Z,25
2022-10-31T06:24:26.545Z,25
2022-10-31T06:25:27.859Z,25
2022-10-31T06:26:26.750Z,25
2022-10-31T06:27:26.659Z,25
2022-10-31T06:28:26.754Z,30
2022-10-31T06:29:26.460Z,30
2022-10-31T06:30:26.467Z,30
2022-10-31T06:31:26.447Z,30
2022-10-31T06:32:27.045Z,35
2022-10-31T06:33:26.456Z,35
2022-10-31T06:34:26.758Z,35
2022-10-31T06:35:27.803Z,40
2022-10-31T06:37:26.533Z,40
2022-10-31T06:38:26.834Z,40
2022-10-31T06:39:28.797Z,40
2022-10-31T06:40:26.853Z,40
2022-10-31T06:41:26.483Z,45
2022-10-31T06:42:27.895Z,45
2022-10-31T06:43:26.526Z,45
2022-10-31T06:44:26.563Z,45
2022-10-31T06:45:26.870Z,45
2022-10-31T06:46:27.307Z,50
2022-10-31T06:47:26.789Z,50
2022-10-31T06:48:31.256Z,50
2022-10-31T06:49:26.998Z,50
2022-10-31T06:50:27.265Z,50
2022-10-31T06:51:27.301Z,50
2022-10-31T06:52:27.714Z,50
2022-10-31T06:53:26.889Z,50
2022-10-31T06:54:27.074Z,55
2022-10-31T06:55:27.479Z,55
2022-10-31T06:56:28.373Z,55
2022-10-31T06:57:26.964Z,55
2022-10-31T06:58:26.903Z,55
2022-10-31T06:59:26.587Z,55
2022-10-31T07:00:26.605Z,60
2022-10-31T07:01:28.844Z,60
2022-10-31T07:02:27.468Z,60
2022-10-31T07:03:26.713Z,65
2022-10-31T07:04:27.001Z,65
2022-10-31T07:05:27.106Z,65
2022-10-31T07:06:26.975Z,65
2022-10-31T07:07:27.514Z,65
2022-10-31T07:08:27.719Z,70
2022-10-31T07:09:26.792Z,70
2022-10-31T07:10:27.051Z,65
2022-10-31T07:11:27.361Z,70
2022-10-31T07:12:29.373Z,65
2022-10-31T07:13:27.062Z,70
2022-10-31T07:14:27.000Z,75
2022-10-31T07:15:27.729Z,70
2022-10-31T07:16:27.853Z,70
2022-10-31T07:17:32.321Z,75
2022-10-31T07:18:27.340Z,75
2022-10-31T07:19:27.373Z,75
2022-10-31T07:20:27.708Z,75
2022-10-31T07:21:27.094Z,80
2022-10-31T07:22:26.806Z,80
2022-10-31T07:23:27.684Z,80
2022-10-31T07:24:27.644Z,85
2022-10-31T07:25:27.231Z,85
2022-10-31T07:26:27.720Z,85
2022-10-31T07:27:26.930Z,90
2022-10-31T07:28:27.385Z,90
2022-10-31T07:29:27.306Z,90
2022-10-31T07:30:27.060Z,90
2022-10-31T07:31:27.309Z,90
2022-10-31T07:32:26.960Z,95
2022-10-31T07:33:28.826Z,95
2022-10-31T07:34:27.497Z,95
2022-10-31T07:35:27.095Z,90
2022-10-31T07:36:28.246Z,90
2022-10-31T07:37:28.030Z,90
2022-10-31T07:38:27.647Z,90
2022-10-31T07:39:28.901Z,90
2022-10-31T07:40:28.372Z,100
2022-10-31T07:41:27.174Z,100
2022-10-31T07:42:28.619Z,100
2022-10-31T07:43:29.036Z,100
2022-10-31T07:44:28.012Z,100
2022-10-31T07:45:27.534Z,100
2022-10-31T07:46:27.423Z,100
2022-10-31T07:47:27.601Z,105
2022-10-31T07:48:27.275Z,105
2022-10-31T07:49:28.909Z,105
2022-10-31T07:50:27.309Z,105
2022-10-31T07:51:28.591Z,105
2022-10-31T07:52:28.343Z,105
2022-10-31T07:53:28.403Z,105
2022-10-31T07:54:27.416Z,110
2022-10-31T07:55:28.631Z,105
2022-10-31T07:56:28.521Z,110
2022-10-31T07:57:37.763Z,110
2022-10-31T07:58:27.385Z,110
2022-10-31T07:59:27.355Z,110
2022-10-31T08:00:27.646Z,110
2022-10-31T08:01:27.580Z,110
2022-10-31T08:02:27.421Z,115
2022-10-31T08:03:27.401Z,115
2022-10-31T08:04:27.684Z,115
2022-10-31T08:05:27.668Z,115
2022-10-31T08:06:27.667Z,115
2022-10-31T08:07:27.582Z,115
2022-10-31T08:08:27.774Z,120
2022-10-31T08:09:28.279Z,120
2022-10-31T08:10:28.343Z,120
2022-10-31T08:11:28.041Z,120
2022-10-31T08:12:28.437Z,120
2022-10-31T08:13:27.790Z,125
2022-10-31T08:14:28.338Z,125
2022-10-31T08:15:27.590Z,125
2022-10-31T08:16:28.049Z,125
2022-10-31T08:17:27.514Z,130
2022-10-31T08:18:27.779Z,125
2022-10-31T08:19:27.542Z,125
2022-10-31T08:20:27.589Z,130
2022-10-31T08:21:28.251Z,130
2022-10-31T08:22:28.009Z,135
2022-10-31T08:23:28.466Z,135
2022-10-31T08:24:27.948Z,135
2022-10-31T08:25:29.794Z,135
2022-10-31T08:26:28.258Z,135
2022-10-31T08:27:28.587Z,135
2022-10-31T08:28:28.566Z,135
2022-10-31T08:29:29.045Z,135
2022-10-31T08:30:27.990Z,140
2022-10-31T08:31:36.596Z,140
2022-10-31T08:32:27.767Z,140
2022-10-31T08:33:28.060Z,140
2022-10-31T08:34:28.048Z,140
2022-10-31T08:35:28.729Z,140
2022-10-31T08:36:28.912Z,140
2022-10-31T08:37:29.826Z,140
2022-10-31T08:38:28.558Z,140
2022-10-31T08:39:28.080Z,140
2022-10-31T08:40:28.486Z,140
2022-10-31T08:41:27.835Z,140
2022-10-31T08:42:28.134Z,140
2022-10-31T08:43:28.228Z,140
2022-10-31T08:44:28.992Z,140
2022-10-31T08:45:28.530Z,145
2022-10-31T08:46:28.157Z,145
2022-10-31T08:47:28.645Z,145
2022-10-31T08:48:28.777Z,150
2022-10-31T08:49:28.089Z,145
2022-10-31T08:50:28.310Z,145
2022-10-31T08:51:28.077Z,150
2022-10-31T08:53:09.197Z,150
2022-10-31T08:53:28.053Z,150
2022-10-31T08:54:29.081Z,150
2022-10-31T08:55:28.309Z,140
2022-10-31T08:56:28.382Z,140
2022-10-31T08:57:28.347Z,140
2022-10-31T08:58:29.757Z,140
2022-10-31T08:59:28.686Z,140
2022-10-31T09:00:29.735Z,140
2022-10-31T09:01:29.753Z,140
2022-10-31T09:02:29.141Z,140
2022-10-31T09:03:29.248Z,150
2022-10-31T09:04:28.790Z,155
2022-10-31T09:05:28.880Z,160
2022-10-31T09:06:29.241Z,155
2022-10-31T09:07:30.144Z,155
2022-10-31T09:08:28.289Z,155
2022-10-31T09:09:28.544Z,165
2022-10-31T09:10:28.569Z,170
2022-10-31T09:11:28.678Z,175
2022-10-31T09:12:28.323Z,175
2022-10-31T09:13:32.367Z,175
2022-10-31T09:14:28.343Z,190
2022-10-31T09:15:28.851Z,175
2022-10-31T09:16:29.393Z,180
2022-10-31T09:17:28.513Z,185
2022-10-31T09:18:28.872Z,180
2022-10-31T09:19:28.723Z,175
2022-10-31T09:20:28.682Z,170
2022-10-31T09:21:28.780Z,170
2022-10-31T09:22:28.477Z,170
2022-10-31T09:23:28.724Z,170
2022-10-31T09:24:29.020Z,170
2022-10-31T09:25:29.202Z,165
2022-10-31T09:26:28.560Z,170
2022-10-31T09:27:29.334Z,170
2022-10-31T09:28:28.693Z,170
2022-10-31T09:29:28.570Z,165
2022-10-31T09:30:29.181Z,165
2022-10-31T09:31:28.904Z,160
2022-10-31T09:32:29.894Z,160
2022-10-31T09:33:29.216Z,165
2022-10-31T09:34:29.606Z,165
2022-10-31T09:35:33.941Z,160
2022-10-31T09:36:29.107Z,160
2022-10-31T09:37:29.293Z,160
2022-10-31T09:38:28.737Z,155
2022-10-31T09:39:29.110Z,150
2022-10-31T09:40:29.265Z,160
2022-10-31T09:41:28.785Z,155
2022-10-31T09:42:29.125Z,160
2022-10-31T09:43:29.310Z,160
2022-10-31T09:44:29.375Z,160
2022-10-31T09:45:30.065Z,165
2022-10-31T09:46:29.592Z,165
2022-10-31T09:47:30.281Z,165
2022-10-31T09:48:30.019Z,165
2022-10-31T09:49:29.658Z,160
2022-10-31T09:50:29.308Z,165
2022-10-31T09:51:30.069Z,165
2022-10-31T09:52:30.062Z,165
2022-10-31T09:53:29.522Z,170
2022-10-31T09:54:29.528Z,170
2022-10-31T09:55:29.026Z,175
2022-10-31T09:56:29.649Z,170
2022-10-31T09:57:32.982Z,170
2022-10-31T09:58:29.212Z,170
2022-10-31T09:59:29.428Z,170
2022-10-31T10:00:29.599Z,170
2022-10-31T10:01:30.561Z,165
2022-10-31T10:02:29.516Z,165
2022-10-31T10:03:29.448Z,170
2022-10-31T10:04:31.686Z,175
2022-10-31T10:05:29.861Z,175
2022-10-31T10:06:29.808Z,175
2022-10-31T10:07:29.477Z,175
2022-10-31T10:08:30.622Z,180
2022-10-31T10:09:30.693Z,180
2022-10-31T10:10:29.495Z,180
2022-10-31T10:11:29.543Z,180
2022-10-31T10:12:30.706Z,185
2022-10-31T10:13:29.620Z,180
2022-10-31T10:14:30.198Z,185
2022-10-31T10:15:29.380Z,185
2022-10-31T10:16:30.195Z,180
2022-10-31T10:17:29.858Z,185
2022-10-31T10:18:30.508Z,185
2022-10-31T10:19:30.348Z,185
2022-10-31T10:20:30.791Z,180
2022-10-31T10:21:30.697Z,180
2022-10-31T10:22:29.915Z,180
2022-10-31T10:23:29.924Z,180
2022-10-31T10:24:29.700Z,180
2022-10-31T10:25:29.534Z,180
2022-10-31T10:26:30.020Z,180
2022-10-31T10:27:32.197Z,185
2022-10-31T10:28:30.052Z,185
2022-10-31T10:29:30.737Z,180
2022-10-31T10:30:29.559Z,170
2022-10-31T10:31:30.180Z,165
2022-10-31T10:32:30.865Z,170
2022-10-31T10:33:30.539Z,175
2022-10-31T10:34:31.200Z,175
2022-10-31T10:35:30.702Z,170
2022-10-31T10:36:31.294Z,170
2022-10-31T10:37:30.464Z,170
2022-10-31T10:38:30.678Z,170
2022-10-31T10:39:29.838Z,170
2022-10-31T10:40:30.305Z,160
2022-10-31T10:41:37.288Z,160
2022-10-31T10:42:30.458Z,165
2022-10-31T10:43:30.157Z,170
2022-10-31T10:44:30.279Z,165
2022-10-31T10:45:30.810Z,170
2022-10-31T10:46:31.110Z,165
2022-10-31T10:47:30.625Z,165
2022-10-31T10:48:30.697Z,170
2022-10-31T10:49:30.246Z,175
2022-10-31T10:50:31.205Z,170
2022-10-31T10:52:51.008Z,175
2022-10-31T10:53:00.837Z,170
2022-10-31T10:54:04.128Z,175
2022-10-31T10:55:00.694Z,185
2022-10-31T10:56:01.290Z,195
2022-10-31T10:57:00.779Z,195
2022-10-31T10:58:01.935Z,195
2022-10-31T10:59:01.966Z,200
2022-10-31T11:00:01.997Z,195
2022-10-31T11:01:01.334Z,195
2022-10-31T11:02:02.004Z,195
2022-10-31T11:03:01.377Z,195
2022-10-31T11:04:00.693Z,195
2022-10-31T11:05:00.996Z,200
2022-10-31T11:06:02.121Z,200
2022-10-31T11:07:01.051Z,200
2022-10-31T11:08:01.634Z,200
2022-10-31T11:09:03.084Z,205
2022-10-31T11:10:01.251Z,200
2022-10-31T11:11:01.468Z,200
2022-10-31T11:12:01.009Z,205
2022-10-31T11:13:03.366Z,200
2022-10-31T11:14:01.588Z,200
2022-10-31T11:15:01.347Z,195
2022-10-31T17:12:51.868Z,0
2022-10-31T17:13:39.400Z,0
2022-10-31T17:14:38.738Z,0
2022-10-31T17:15:39.029Z,0
2022-10-31T17:16:38.780Z,0
2022-10-31T17:17:38.797Z,0
2022-10-31T17:18:38.835Z,0
2022-10-31T17:19:39.706Z,0
2022-10-31T17:20:39.388Z,0
2022-10-31T17:21:39.074Z,0
2022-10-31T17:23:39.387Z,0
2022-10-31T17:24:39.401Z,0
2022-10-31T17:25:39.059Z,0
2022-10-31T17:26:39.982Z,0
2022-10-31T17:27:39.621Z,0
2022-10-31T17:28:39.530Z,0
2022-10-31T17:29:39.600Z,0
2022-10-31T17:30:38.964Z,0
2022-10-31T17:31:39.333Z,0
2022-10-31T17:32:39.850Z,0
2022-10-31T17:33:39.804Z,0
2022-10-31T17:34:39.611Z,0
2022-10-31T17:35:40.101Z,0
2022-10-31T17:36:39.445Z,0
2022-10-31T17:37:39.104Z,0
2022-10-31T17:38:39.038Z,0
2022-10-31T17:39:40.341Z,0
2022-10-31T17:40:39.916Z,0
2022-10-31T17:41:40.256Z,0
2022-10-31T17:42:39.450Z,0
2022-10-31T17:43:40.342Z,0
2022-10-31T17:44:40.613Z,0
2022-10-31T17:45:40.407Z,0
2022-10-31T17:46:39.722Z,0
2022-10-31T17:47:39.522Z,0
2022-10-31T17:48:39.622Z,0
2022-10-31T17:49:39.445Z,0
2022-10-31T17:50:39.560Z,0
2022-10-31T17:51:39.407Z,0
2022-10-31T17:52:39.283Z,0
2022-10-31T17:53:40.130Z,0
2022-10-31T17:54:39.793Z,0
2022-10-31T17:55:46.131Z,0
2022-10-31T17:56:40.871Z,0
2022-10-31T17:57:39.978Z,0
2022-10-31T17:58:39.664Z,0
2022-10-31T17:59:39.678Z,0
2022-10-31T18:00:40.289Z,0
2022-10-31T18:01:41.031Z,0
2022-10-31T18:02:40.878Z,0
2022-10-31T18:03:39.717Z,0
2022-10-31T18:04:39.484Z,0
2022-10-31T18:05:39.504Z,0
2022-10-31T18:06:40.402Z,0
2022-10-31T18:07:41.079Z,0
2022-10-31T18:08:40.146Z,0
2022-10-31T18:09:39.820Z,0
2022-10-31T18:10:39.882Z,0
2022-10-31T18:11:39.646Z,0
2022-10-31T18:12:39.547Z,0
2022-10-31T18:13:39.554Z,0
2022-10-31T18:14:44.660Z,0
2022-10-31T18:15:40.084Z,0
2022-10-31T18:16:41.693Z,0
2022-10-31T18:17:46.686Z,0
2022-10-31T18:18:40.408Z,0
2022-10-31T18:19:39.698Z,0
2022-10-31T18:20:40.232Z,0
2022-10-31T18:21:39.762Z,0
2022-10-31T18:22:39.675Z,0
2022-10-31T18:23:39.998Z,0
2022-10-31T18:24:40.771Z,0
2022-10-31T18:25:40.366Z,0
2022-10-31T18:26:40.909Z,0
2022-10-31T18:27:39.745Z,0
2022-10-31T18:28:40.171Z,0
2022-10-31T18:29:40.385Z,0
2022-10-31T18:30:39.853Z,0
2022-10-31T18:31:40.454Z,0
2022-10-31T18:32:40.515Z,0
2022-10-31T18:33:40.540Z,0
2022-10-31T18:34:40.655Z,0
2022-10-31T18:35:40.093Z,0
2022-10-31T18:36:39.913Z,0
2022-10-31T18:37:40.392Z,0
2022-10-31T18:38:40.479Z,0
2022-10-31T18:39:40.186Z,0
2022-10-31T18:40:40.584Z,0
2022-10-31T18:41:40.157Z,0
2022-10-31T18:42:40.260Z,0
2022-10-31T18:43:39.952Z,0
2022-10-31T18:44:40.006Z,0
2022-10-31T18:46:02.712Z,0
2022-10-31T18:46:40.002Z,0
2022-10-31T18:47:40.266Z,0
2022-10-31T18:48:40.662Z,0
2022-10-31T18:49:40.660Z,0
2022-10-31T18:50:41.210Z,0
2022-10-31T18:51:40.327Z,0
2022-10-31T18:52:40.866Z,0
2022-10-31T18:53:39.976Z,0
2022-10-31T18:54:40.417Z,0
2022-10-31T18:55:42.613Z,0
2022-10-31T18:56:40.139Z,0
2022-10-31T18:57:40.368Z,0
2022-10-31T18:58:41.277Z,0
2022-10-31T18:59:40.737Z,0
2022-10-31T19:00:40.195Z,0
2022-10-31T19:01:41.178Z,0
2022-10-31T19:02:40.663Z,0
2022-10-31T19:03:40.650Z,0
2022-10-31T19:04:41.066Z,0
2022-10-31T19:05:40.819Z,0
2022-10-31T19:06:41.333Z,0
2022-10-31T19:07:40.844Z,0
2022-10-31T19:08:40.285Z,0
2022-10-31T19:09:41.444Z,0
2022-10-31T19:10:42.545Z,0
2022-10-31T19:11:41.032Z,0
2022-10-31T19:12:40.452Z,0
2022-10-31T19:13:40.577Z,0
2022-10-31T19:14:42.208Z,0
2022-10-31T19:15:40.737Z,0
2022-10-31T19:16:40.474Z,0
2022-10-31T19:17:40.899Z,0
2022-10-31T19:18:41.254Z,0
2022-10-31T19:19:42.283Z,0
2022-10-31T19:20:40.909Z,0
2022-10-31T19:21:41.035Z,0
2022-10-31T19:22:41.912Z,0
2022-10-31T19:23:40.880Z,0
2022-10-31T19:24:40.715Z,0
2022-10-31T19:25:41.750Z,0
2022-10-31T19:26:41.155Z,0
2022-10-31T19:27:41.402Z,0
2022-10-31T19:28:40.769Z,0
2022-10-31T19:29:40.905Z,0
2022-10-31T19:30:40.577Z,0
2022-10-31T19:31:41.095Z,0
2022-10-31T19:32:40.820Z,0
2022-10-31T19:33:45.119Z,0
2022-10-31T19:34:40.826Z,0
2022-10-31T19:35:40.864Z,0
2022-10-31T19:36:41.586Z,0
2022-10-31T19:37:41.394Z,0
2022-10-31T19:38:40.988Z,0
2022-10-31T19:39:48.407Z,0
2022-10-31T19:40:42.690Z,0
2022-10-31T19:41:40.993Z,0
2022-10-31T19:42:41.381Z,0
2022-10-31T19:43:42.134Z,0
2022-10-31T19:44:40.765Z,0
2022-10-31T19:45:40.802Z,0
2022-10-31T19:47:02.397Z,0
2022-10-31T19:47:40.698Z,0
2022-10-31T19:48:41.018Z,0
2022-10-31T19:49:41.221Z,0
2022-10-31T19:50:40.821Z,0
2022-10-31T19:51:40.812Z,0
2022-10-31T19:52:41.431Z,0
2022-10-31T19:53:41.517Z,0
2022-10-31T19:54:41.226Z,0
2022-10-31T19:55:41.105Z,0
2022-10-31T19:56:41.488Z,0
2022-10-31T19:58:09.111Z,0
2022-10-31T19:58:41.045Z,0
2022-10-31T19:59:47.965Z,0
2022-10-31T20:00:41.628Z,0
2022-10-31T20:01:42.043Z,0
2022-10-31T20:02:41.034Z,0
2022-10-31T20:03:41.844Z,0
2022-10-31T20:04:41.572Z,0
2022-10-31T20:05:40.985Z,0
2022-10-31T20:06:41.517Z,0
2022-10-31T20:07:41.088Z,0
2022-10-31T20:08:49.877Z,0
2022-10-31T20:09:42.028Z,0
2022-10-31T20:10:41.532Z,0
2022-10-31T20:11:41.235Z,0
2022-10-31T20:12:41.301Z,0
2022-10-31T20:13:41.221Z,0
2022-10-31T20:14:41.186Z,0
2022-10-31T20:15:41.976Z,0
2022-10-31T20:16:41.054Z,0
2022-10-31T20:17:42.284Z,0
2022-10-31T20:18:41.538Z,0
2022-10-31T20:19:42.371Z,0
2022-10-31T20:20:43.845Z,0
2022-10-31T20:21:41.769Z,0
2022-10-31T20:22:41.127Z,0
2022-10-31T20:23:41.797Z,0
2022-10-31T20:24:42.545Z,0
2022-10-31T20:25:42.036Z,0
2022-10-31T20:26:41.237Z,0
2022-10-31T20:27:41.375Z,0
2022-10-31T20:28:48.395Z,0
2022-10-31T20:29:41.822Z,0
2022-10-31T20:30:42.148Z,0
2022-10-31T20:31:41.230Z,0
2022-10-31T20:32:44.306Z,0
2022-10-31T20:33:43.009Z,0
2022-10-31T20:34:41.894Z,0
2022-10-31T20:35:41.330Z,0
2022-10-31T20:36:42.171Z,0
2022-10-31T20:37:41.773Z,0
2022-10-31T20:38:41.500Z,0
2022-10-31T20:39:42.238Z,0
2022-10-31T20:40:42.996Z,0
2022-10-31T20:41:41.717Z,0
2022-10-31T20:42:42.935Z,0
2022-10-31T20:43:41.730Z,0
2022-10-31T20:44:41.649Z,0
2022-10-31T20:45:41.391Z,0
2022-10-31T20:46:41.459Z,0
2022-10-31T20:47:41.653Z,0
2022-10-31T20:48:41.725Z,0
2022-10-31T20:49:41.712Z,0
2022-10-31T20:50:42.099Z,0
2022-10-31T20:51:41.535Z,0
2022-10-31T20:52:41.533Z,0
2022-10-31T20:53:42.152Z,0
2022-10-31T20:54:42.381Z,0
2022-10-31T20:55:41.762Z,0
2022-10-31T20:56:42.409Z,0
2022-10-31T20:57:42.679Z,0
2022-10-31T20:58:41.619Z,0
2022-10-31T20:59:43.119Z,0
2022-10-31T21:00:41.947Z,0
2022-10-31T21:01:42.701Z,0
2022-10-31T21:02:42.100Z,0
2022-10-31T21:03:41.721Z,0
2022-10-31T21:04:42.681Z,0
2022-10-31T21:05:45.237Z,0
2022-10-31T21:06:45.300Z,0
2022-10-31T21:07:42.822Z,0
2022-10-31T21:08:42.153Z,0
2022-10-31T21:09:42.546Z,0
2022-10-31T21:10:42.038Z,0
2022-10-31T21:11:42.034Z,0
2022-10-31T21:12:43.371Z,0
2022-10-31T21:13:47.724Z,0
2022-10-31T21:14:41.866Z,0
2022-10-31T21:15:41.912Z,0
2022-10-31T21:16:41.926Z,0
2022-10-31T21:17:42.023Z,0
2022-10-31T21:18:42.477Z,0
2022-10-31T21:19:42.840Z,0
2022-10-31T21:20:42.886Z,0
2022-10-31T21:21:42.317Z,0
2022-10-31T21:22:43.074Z,0
2022-10-31T21:23:43.496Z,0
2022-10-31T21:24:42.216Z,0
2022-10-31T21:25:42.623Z,0
2022-10-31T21:26:43.377Z,0
2022-10-31T21:27:43.543Z,0
2022-10-31T21:28:43.448Z,0
2022-10-31T21:29:42.387Z,0
2022-10-31T21:30:43.023Z,0
2022-10-31T21:31:42.101Z,0
2022-10-31T21:32:42.382Z,0
2022-10-31T21:33:42.738Z,0
2022-10-31T21:34:42.473Z,0
2022-10-31T21:35:42.257Z,0
2022-10-31T21:36:42.338Z,0
2022-10-31T21:37:42.312Z,0
2022-10-31T21:38:42.542Z,0
2022-10-31T21:39:44.617Z,0
2022-10-31T21:41:43.824Z,0
2022-10-31T21:42:42.218Z,0
2022-10-31T21:43:42.283Z,0
2022-10-31T21:44:43.080Z,0
2022-10-31T21:45:42.499Z,0
2022-10-31T21:46:43.052Z,0
2022-10-31T21:47:42.238Z,0
2022-10-31T21:48:42.258Z,0
2022-10-31T21:49:42.319Z,0
2022-10-31T21:50:42.317Z,0
2022-10-31T21:51:42.767Z,0
2022-10-31T21:52:42.636Z,0
2022-10-31T21:53:42.242Z,0
2022-10-31T21:54:42.255Z,0
2022-10-31T21:55:42.338Z,0
2022-10-31T21:56:42.669Z,0
2022-10-31T21:57:42.592Z,0
2022-10-31T21:58:46.741Z,0
2022-10-31T21:59:42.639Z,0
2022-10-31T22:00:43.282Z,0
2022-10-31T22:01:43.675Z,0
2022-10-31T22:02:42.717Z,0
2022-10-31T22:03:42.971Z,0
2022-10-31T22:04:42.484Z,0
2022-10-31T22:05:42.714Z,0
2022-10-31T22:06:43.382Z,0
2022-10-31T22:07:43.412Z,0
2022-10-31T22:08:42.878Z,0
2022-10-31T22:09:42.877Z,0
2022-10-31T22:10:43.144Z,0
2022-10-31T22:11:43.044Z,0
2022-10-31T22:12:43.341Z,0
2022-10-31T22:13:43.683Z,0
2022-10-31T22:14:43.902Z,0
2022-10-31T22:15:42.842Z,0
2022-10-31T22:16:43.828Z,0
2022-10-31T22:17:43.660Z,0
2022-10-31T22:18:43.029Z,0
2022-10-31T22:19:44.746Z,0
2022-10-31T22:20:42.837Z,0
2022-10-31T22:21:43.234Z,0
2022-10-31T22:22:42.834Z,0
2022-10-31T22:23:43.110Z,0
2022-10-31T22:25:14.675Z,0
2022-10-31T22:25:43.197Z,0
2022-10-31T22:26:42.864Z,0
2022-10-31T22:27:43.496Z,0
2022-10-31T22:28:43.079Z,0
2022-10-31T22:29:42.692Z,0
2022-10-31T22:30:44.728Z,0
2022-10-31T22:31:43.173Z,0
2022-10-31T22:32:45.651Z,0
2022-10-31T22:33:43.855Z,0
2022-10-31T22:34:43.139Z,0
2022-10-31T22:35:43.439Z,0
2022-10-31T22:36:43.390Z,0
2022-10-31T22:37:42.923Z,0
2022-10-31T22:38:43.923Z,0
2022-10-31T22:39:43.081Z,0
2022-10-31T22:40:43.433Z,0
2022-10-31T22:41:43.163Z,0
2022-10-31T22:42:43.341Z,0
2022-10-31T22:43:42.830Z,0
2022-10-31T22:44:42.899Z,0
2022-10-31T22:45:43.022Z,0
2022-10-31T22:46:43.510Z,0
2022-10-31T22:47:43.745Z,0
2022-10-31T22:48:43.828Z,0
2022-10-31T22:49:43.129Z,0
2022-10-31T22:50:42.952Z,0
2022-10-31T22:51:43.705Z,0
2022-10-31T22:52:42.996Z,0
2022-10-31T22:53:43.346Z,0
2022-10-31T22:54:42.992Z,0
2022-10-31T22:55:43.754Z,0
2022-10-31T22:56:43.280Z,0
2022-10-31T22:57:43.010Z,0
2022-10-31T22:58:44.365Z,0
2022-10-31T22:59:44.089Z,0
2022-10-31T23:00:44.306Z,0
